Terminal Aerodrome Forecast
Issued by NWS Bismarck, ND

Home | Current Version | Previous Version | Graphics & Text | Print | Product List | Glossary On
Versions: 1 2 3 4 5 6 7 8 9 10 11 12 13 14 15
000
FTUS43 KBIS 020529
TAFISN
TAF
KISN 020529Z 0206/0306 20005KT P6SM SCT120
     FM021400 25006KT P6SM BKN140
     FM021700 27015G25KT P6SM SCT100
     FM030100 33009KT P6SM SCT060=

USA.gov is the U.S. government's official web portal to all federal, state and local government web resources and services.